createdAt,value
2022-12-03T00:00:49.109Z,3.49
2022-12-03T00:03:19.287Z,3.85
2022-12-03T00:05:49.440Z,4.72
2022-12-03T00:10:49.190Z,4.02
2022-12-03T00:18:19.246Z,4.61
2022-12-03T00:23:19.292Z,4.82
2022-12-03T00:25:49.343Z,4.71
2022-12-03T00:28:19.353Z,5.27
2022-12-03T00:30:49.501Z,4.02
2022-12-03T00:33:19.399Z,3.93
2022-12-03T00:40:49.599Z,3.82
2022-12-03T00:43:19.484Z,4.38
2022-12-03T00:45:49.511Z,4.69
2022-12-03T00:48:19.525Z,5.04
2022-12-03T00:50:49.602Z,5.04
2022-12-03T00:53:19.585Z,4.8
2022-12-03T00:55:49.614Z,5.26
2022-12-03T01:00:49.641Z,4.98
2022-12-03T01:03:19.679Z,4.59
2022-12-03T01:05:49.702Z,4.49
2022-12-03T01:08:19.735Z,4.5
2022-12-03T01:10:49.750Z,4.52
2022-12-03T01:13:19.772Z,4.58
2022-12-03T01:18:19.820Z,5.39
2022-12-03T01:23:19.859Z,5.13
2022-12-03T01:28:19.909Z,6.28
2022-12-03T01:30:50.036Z,6.03
2022-12-03T01:40:50.055Z,5.33
2022-12-03T01:50:50.134Z,5.05
2022-12-03T01:53:20.186Z,5.78
2022-12-03T01:55:50.169Z,5.83
2022-12-03T01:58:20.191Z,5.8
2022-12-03T02:00:50.245Z,4.29
2022-12-03T02:03:20.262Z,4.5
2022-12-03T02:05:50.265Z,4.83
2022-12-03T02:08:20.283Z,5.62
2022-12-03T02:15:50.376Z,5.52
2022-12-03T02:18:20.395Z,5.68
2022-12-03T02:20:50.419Z,6.23
2022-12-03T02:25:50.450Z,5.39
2022-12-03T02:30:50.507Z,5.42
2022-12-03T02:33:20.524Z,4.76
2022-12-03T02:35:50.547Z,7.62
2022-12-03T02:38:20.563Z,5.24
2022-12-03T02:45:50.661Z,5.73
2022-12-03T02:48:20.668Z,6.45
2022-12-03T02:50:50.708Z,5.32
2022-12-03T02:53:20.735Z,4.03
2022-12-03T03:00:50.905Z,4.97
2022-12-03T03:08:20.854Z,5.95
2022-12-03T03:10:50.894Z,5.94
2022-12-03T03:13:20.909Z,8.2
2022-12-03T03:18:20.946Z,5.87
2022-12-03T03:20:50.995Z,5.54
2022-12-03T03:23:21.037Z,5.31
2022-12-03T03:28:21.050Z,4.77
2022-12-03T03:30:51.099Z,3.8
2022-12-03T03:33:21.114Z,5.41
2022-12-03T03:38:21.150Z,8.24
2022-12-03T03:40:51.193Z,6.41
2022-12-03T03:43:21.193Z,6.16
2022-12-03T03:50:51.270Z,9.28
2022-12-03T03:53:21.301Z,6.38
2022-12-03T03:55:51.325Z,5.15
2022-12-03T04:00:51.420Z,6.73
2022-12-03T04:03:21.391Z,4.29
2022-12-03T04:05:51.445Z,6.32
2022-12-03T04:08:21.440Z,8.78
2022-12-03T04:10:51.479Z,7.85
2022-12-03T04:15:51.501Z,7.24
2022-12-03T04:18:21.522Z,7.15
2022-12-03T04:20:51.555Z,7.31
2022-12-03T04:23:24.946Z,6.72
2022-12-03T04:30:51.690Z,4.18
2022-12-03T04:33:21.694Z,4.96
2022-12-03T04:35:51.725Z,4.64
2022-12-03T04:38:21.737Z,7.74
2022-12-03T04:43:21.782Z,8.57
2022-12-03T04:45:51.810Z,6.72
2022-12-03T04:55:51.886Z,5.21
2022-12-03T04:58:21.900Z,5.77
2022-12-03T05:05:51.975Z,7.06
2022-12-03T05:08:22.000Z,9.03
2022-12-03T05:13:22.048Z,6.45
2022-12-03T05:18:22.201Z,7.85
2022-12-03T05:23:22.143Z,6.37
2022-12-03T05:28:22.213Z,4.05
2022-12-03T05:30:52.278Z,5.63
2022-12-03T05:33:22.233Z,6.36
2022-12-03T05:35:52.275Z,8.26
2022-12-03T05:40:52.322Z,7.3
2022-12-03T05:43:22.315Z,8.71
2022-12-03T05:45:52.418Z,6.46
2022-12-03T05:48:22.395Z,8.91
2022-12-03T05:50:52.409Z,6.33
2022-12-03T05:53:22.431Z,9.04
2022-12-03T05:55:52.431Z,7.25
2022-12-03T05:58:22.484Z,7.15
2022-12-03T06:00:52.523Z,8.74
2022-12-03T06:03:22.761Z,7.13
2022-12-03T06:05:52.545Z,5.14
2022-12-03T06:08:22.573Z,4.3
2022-12-03T06:10:52.599Z,5.15
2022-12-03T06:13:22.612Z,6.91
2022-12-03T06:15:52.729Z,6.01
2022-12-03T06:18:22.673Z,9.66
2022-12-03T06:20:52.709Z,9.24
2022-12-03T06:23:22.705Z,6.96
2022-12-03T06:25:52.720Z,8.37
2022-12-03T06:28:22.774Z,8.85
2022-12-03T06:30:52.932Z,5.22
2022-12-03T06:33:22.801Z,7.92
2022-12-03T06:35:52.829Z,7.77
2022-12-03T06:38:22.848Z,7.29
2022-12-03T06:40:52.889Z,7.41
2022-12-03T06:43:22.894Z,8.8
2022-12-03T06:45:52.946Z,7.67
2022-12-03T06:48:22.955Z,9.83
2022-12-03T06:50:52.979Z,8.55
2022-12-03T06:53:22.979Z,7.36
2022-12-03T06:55:53.024Z,7.12
2022-12-03T06:58:23.045Z,5.84
2022-12-03T07:00:53.067Z,5.76
2022-12-03T07:03:23.171Z,5.46
2022-12-03T07:05:53.238Z,6.51
2022-12-03T07:08:23.157Z,7.72
2022-12-03T07:10:53.204Z,9.01
2022-12-03T07:13:23.187Z,8.8
2022-12-03T07:15:53.258Z,10.04
2022-12-03T07:18:23.245Z,6.65
2022-12-03T07:20:53.267Z,5.62
2022-12-03T07:23:23.271Z,6.25
2022-12-03T07:25:53.304Z,4.94
2022-12-03T07:28:23.337Z,4.83
2022-12-03T07:30:53.393Z,4.71
2022-12-03T07:33:23.356Z,5.4
2022-12-03T07:35:53.408Z,5.84
2022-12-03T07:38:23.425Z,7.84
2022-12-03T07:45:53.509Z,5.95
2022-12-03T07:48:23.516Z,8.81
2022-12-03T07:50:53.546Z,6.74
2022-12-03T07:53:23.542Z,8.45
2022-12-03T07:55:53.626Z,7.11
2022-12-03T07:58:23.623Z,6.08
2022-12-03T08:00:53.687Z,3.64
2022-12-03T08:03:23.656Z,5.04
2022-12-03T08:05:53.682Z,8.04
2022-12-03T08:08:23.712Z,6.12
2022-12-03T08:10:53.717Z,7.5
2022-12-03T08:13:23.740Z,6.85
2022-12-03T08:18:23.823Z,6.93
2022-12-03T08:20:53.825Z,5.98
2022-12-03T08:23:23.848Z,6.3
2022-12-03T08:25:53.879Z,6.19
2022-12-03T08:30:53.921Z,7.64
2022-12-03T08:33:23.941Z,7.26
2022-12-03T08:35:53.961Z,6.91
2022-12-03T08:38:24.050Z,7.83
2022-12-03T08:40:53.994Z,7.32
2022-12-03T08:45:54.151Z,4.98
2022-12-03T08:48:24.259Z,5.55
2022-12-03T08:50:54.113Z,5.76
2022-12-03T08:53:24.117Z,4.27
2022-12-03T08:55:54.176Z,5.36
2022-12-03T08:58:24.184Z,5.47
2022-12-03T09:00:54.263Z,7.55
2022-12-03T09:05:54.267Z,4.14
2022-12-03T09:10:54.302Z,5.14
2022-12-03T09:13:24.323Z,5.36
2022-12-03T09:15:54.361Z,7.46
2022-12-03T09:18:24.355Z,4.32
2022-12-03T09:20:54.381Z,5.16
2022-12-03T09:23:24.439Z,3.42
2022-12-03T09:25:54.463Z,3.55
2022-12-03T09:28:24.471Z,5.58
2022-12-03T09:30:54.481Z,5.01
2022-12-03T09:33:24.541Z,4.27
2022-12-03T09:35:54.553Z,5.86
2022-12-03T09:40:54.570Z,6.52
2022-12-03T09:43:33.428Z,7.43
2022-12-03T09:45:54.690Z,7.7
2022-12-03T09:48:24.655Z,9.56
2022-12-03T09:50:54.664Z,8.94
2022-12-03T09:58:24.749Z,10.84
2022-12-03T10:00:54.889Z,7.74
2022-12-03T10:10:54.875Z,8.23
2022-12-03T10:13:26.116Z,8.53
2022-12-03T10:20:54.967Z,7.3
2022-12-03T10:23:25.037Z,5.34
2022-12-03T10:25:55.025Z,5.46
2022-12-03T10:28:25.018Z,7.26
2022-12-03T10:33:25.097Z,8.35
2022-12-03T10:35:55.107Z,6.64
2022-12-03T10:38:25.110Z,7.06
2022-12-03T10:40:55.159Z,6.04
2022-12-03T10:43:25.192Z,5.3
2022-12-03T10:46:00.376Z,7.4
2022-12-03T10:48:25.264Z,5.53
2022-12-03T10:50:55.251Z,7.22
2022-12-03T10:53:25.274Z,5.82
2022-12-03T10:55:55.286Z,6.49
2022-12-03T10:58:25.310Z,5.9
2022-12-03T11:00:55.330Z,6.92
2022-12-03T11:03:25.434Z,6
2022-12-03T11:05:55.419Z,5.13
2022-12-03T11:08:25.397Z,4.85
2022-12-03T11:10:55.452Z,4.55
2022-12-03T11:13:25.468Z,6.07
2022-12-03T11:15:55.579Z,5.89
2022-12-03T11:20:55.551Z,4.33
2022-12-03T11:23:25.568Z,3.64
2022-12-03T11:25:55.577Z,3.97
2022-12-03T11:28:25.604Z,3.77
2022-12-03T11:30:55.683Z,3.67
2022-12-03T11:33:25.655Z,3.29
2022-12-03T11:35:55.691Z,4.33
2022-12-03T11:38:25.694Z,4.16
2022-12-03T11:40:55.732Z,4.49
2022-12-03T11:43:25.765Z,4.41
2022-12-03T11:46:01.042Z,4.49
2022-12-03T11:48:25.791Z,4.97
2022-12-03T11:50:55.812Z,4.41
2022-12-03T11:53:25.844Z,4.53
2022-12-03T11:56:00.084Z,3.83
2022-12-03T11:58:25.883Z,3.63
2022-12-03T12:00:55.914Z,6.96
2022-12-03T12:03:26.071Z,7.85
2022-12-03T12:05:55.947Z,8.26
2022-12-03T12:08:25.968Z,5.66
2022-12-03T12:10:56.004Z,5.48
2022-12-03T12:13:26.043Z,4.82
2022-12-03T12:15:56.070Z,5.59
2022-12-03T12:18:26.083Z,5.74
2022-12-03T12:20:56.117Z,5.46
2022-12-03T12:23:26.143Z,6.34
2022-12-03T12:25:56.163Z,6.79
2022-12-03T12:28:26.170Z,6.12
2022-12-03T12:30:56.200Z,5.59
2022-12-03T12:33:26.233Z,4.48
2022-12-03T12:35:56.225Z,4.99
2022-12-03T12:38:26.265Z,6.37
2022-12-03T12:40:56.295Z,5.92
2022-12-03T12:43:26.302Z,7.17
2022-12-03T12:45:56.334Z,7.41
2022-12-03T12:48:26.359Z,7.51
2022-12-03T12:50:56.395Z,6.68
2022-12-03T12:53:26.418Z,5.87
2022-12-03T12:55:56.464Z,4.43
2022-12-03T12:58:26.484Z,5.44
2022-12-03T13:00:56.827Z,4.28
2022-12-03T13:03:26.498Z,5.5
2022-12-03T13:05:56.523Z,5.2
2022-12-03T13:08:26.604Z,5.13
2022-12-03T13:10:56.595Z,5.34
2022-12-03T13:13:26.583Z,5.51
2022-12-03T13:15:56.669Z,3.97
2022-12-03T13:18:26.651Z,4.58
2022-12-03T13:20:56.671Z,4.04
2022-12-03T13:23:26.693Z,4.89
2022-12-03T13:26:02.218Z,5.29
2022-12-03T13:28:26.755Z,5.03
2022-12-03T13:30:56.786Z,4.49
2022-12-03T13:33:26.795Z,6.43
2022-12-03T13:35:56.812Z,5.38
2022-12-03T13:40:56.859Z,4.64
2022-12-03T13:43:26.905Z,4.8
2022-12-03T13:45:56.976Z,4.28
2022-12-03T13:48:26.946Z,5.18
2022-12-03T13:50:56.941Z,5.66
2022-12-03T13:53:26.986Z,4.87
2022-12-03T13:55:57.013Z,4.39
2022-12-03T13:58:27.028Z,4.61
2022-12-03T14:00:57.091Z,6.2
2022-12-03T14:03:27.077Z,6.88
2022-12-03T14:05:57.129Z,5.62
2022-12-03T14:08:27.133Z,4.85
2022-12-03T14:13:27.171Z,7.17
2022-12-03T14:15:57.277Z,6.54
2022-12-03T14:18:27.236Z,4.73
2022-12-03T14:20:57.249Z,4.26
2022-12-03T14:23:27.413Z,2.62
2022-12-03T14:25:57.307Z,4.11
2022-12-03T14:28:27.321Z,6.39
2022-12-03T14:30:57.340Z,6.76
2022-12-03T14:35:57.407Z,7.52
2022-12-03T14:38:27.422Z,9.32
2022-12-03T14:40:57.426Z,6.09
2022-12-03T14:43:27.463Z,6.52
2022-12-03T14:45:57.513Z,8.3
2022-12-03T14:48:27.524Z,8.96
2022-12-03T14:50:57.532Z,8.65
2022-12-03T14:53:27.713Z,7.14
2022-12-03T14:55:57.591Z,6.62
2022-12-03T14:58:27.618Z,6.46
2022-12-03T15:00:57.661Z,6.79
2022-12-03T15:03:27.646Z,5.03
2022-12-03T15:05:57.695Z,8.94
2022-12-03T15:08:27.703Z,9.66
2022-12-03T15:10:57.714Z,7.34
2022-12-03T15:13:27.737Z,5.24
2022-12-03T15:20:57.812Z,5.33
2022-12-03T15:23:27.841Z,8.23
2022-12-03T15:25:57.874Z,7.6
2022-12-03T15:28:27.903Z,7.61
2022-12-03T15:30:57.938Z,6.15
2022-12-03T15:33:27.938Z,6.86
2022-12-03T15:35:57.966Z,7.56
2022-12-03T15:38:27.992Z,9.7
2022-12-03T15:40:57.996Z,7.68
2022-12-03T15:43:28.021Z,6.67
2022-12-03T15:45:58.207Z,6.61
2022-12-03T15:48:28.094Z,6.77
2022-12-03T15:50:58.133Z,6.33
2022-12-03T15:53:28.141Z,5.35
2022-12-03T15:55:58.168Z,5.76
2022-12-03T15:58:28.203Z,10.04
2022-12-03T16:00:58.195Z,10.88
2022-12-03T16:03:28.343Z,8.44
2022-12-03T16:05:58.262Z,8.38
2022-12-03T16:08:28.277Z,9.65
2022-12-03T16:13:28.329Z,8.1
2022-12-03T16:15:58.420Z,7.26
2022-12-03T16:23:28.416Z,6.69
2022-12-03T16:25:58.464Z,6.38
2022-12-03T16:28:28.485Z,7.65
2022-12-03T16:30:58.736Z,7.77
2022-12-03T16:40:58.585Z,6.25
2022-12-03T16:43:28.611Z,9.33
2022-12-03T16:45:58.712Z,10.76
2022-12-03T16:48:28.659Z,8.76
2022-12-03T16:50:58.668Z,7.43
2022-12-03T16:53:28.703Z,6.65
2022-12-03T16:55:58.725Z,9.23
2022-12-03T16:58:28.759Z,8.13
2022-12-03T17:03:33.660Z,8.08
2022-12-03T17:05:58.840Z,9.16
2022-12-03T17:08:28.857Z,9.53
2022-12-03T17:10:58.907Z,7.88
2022-12-03T17:13:28.883Z,6.57
2022-12-03T17:15:59.039Z,6.93
2022-12-03T17:18:28.952Z,7.44
2022-12-03T17:23:28.995Z,10.45
2022-12-03T17:25:59.002Z,6.94
2022-12-03T17:28:29.033Z,10.92
2022-12-03T17:30:59.095Z,11.05
2022-12-03T17:35:59.102Z,8.15
2022-12-03T17:40:59.158Z,5.75
2022-12-03T17:45:59.249Z,5.92
2022-12-03T17:48:29.231Z,5.59
2022-12-03T17:50:59.256Z,9.1
2022-12-03T17:53:29.278Z,7.18
2022-12-03T17:55:59.329Z,5.26
2022-12-03T17:58:29.324Z,5.2
2022-12-03T18:01:02.778Z,8.38
2022-12-03T18:05:59.404Z,8.97
2022-12-03T18:08:29.413Z,10.08
2022-12-03T18:10:59.489Z,7.49
2022-12-03T18:13:29.457Z,7.72
2022-12-03T18:15:59.544Z,8.25
2022-12-03T18:18:29.498Z,7.4
2022-12-03T18:20:59.537Z,6.5
2022-12-03T18:23:29.708Z,6.05
2022-12-03T18:25:59.573Z,8.31
2022-12-03T18:28:29.586Z,8.04
2022-12-03T18:30:59.632Z,7.56
2022-12-03T18:33:29.688Z,7.83
2022-12-03T18:35:59.671Z,5.57
2022-12-03T18:38:29.698Z,3.99
2022-12-03T18:40:59.720Z,4.71
2022-12-03T18:43:29.748Z,8.75
2022-12-03T18:45:59.760Z,9.96
2022-12-03T18:48:29.781Z,8.93
2022-12-03T18:50:59.821Z,7.58
2022-12-03T18:53:29.845Z,7.54
2022-12-03T18:58:29.883Z,6.08
2022-12-03T19:01:00.003Z,5.22
2022-12-03T19:03:30.003Z,5.9
2022-12-03T19:05:59.941Z,9.5
2022-12-03T19:08:29.979Z,7.71
2022-12-03T19:11:00.001Z,6.77
2022-12-03T19:13:30.601Z,7.87
2022-12-03T19:18:30.090Z,5.41
2022-12-03T19:23:30.156Z,5.77
2022-12-03T19:26:00.135Z,7.07
2022-12-03T19:28:30.183Z,6.38
2022-12-03T19:31:00.367Z,7.24
2022-12-03T19:36:00.324Z,4.78
2022-12-03T19:38:30.275Z,4.62
2022-12-03T19:41:00.300Z,6
2022-12-03T19:43:30.351Z,7.5
2022-12-03T19:51:26.179Z,6.33
2022-12-03T19:53:30.431Z,4.18
2022-12-03T19:56:00.430Z,3.88
2022-12-03T19:58:30.479Z,4.76
2022-12-03T20:01:00.487Z,7.44
2022-12-03T20:03:30.535Z,6.55
2022-12-03T20:06:00.521Z,5.22
2022-12-03T20:08:30.552Z,5.14
2022-12-03T20:11:00.582Z,6.86
2022-12-03T20:13:36.199Z,7.34
2022-12-03T20:16:00.718Z,8.91
2022-12-03T20:18:30.663Z,9.07
2022-12-03T20:21:00.692Z,8.03
2022-12-03T20:23:30.706Z,9.52
2022-12-03T20:26:00.735Z,8.02
2022-12-03T20:28:30.766Z,6.48
2022-12-03T20:31:00.807Z,8.87
2022-12-03T20:33:30.784Z,8.26
2022-12-03T20:36:00.819Z,5.51
2022-12-03T20:38:30.881Z,8.97
2022-12-03T20:41:00.876Z,8.48
2022-12-03T20:43:30.889Z,10.03
2022-12-03T20:46:02.873Z,8.63
2022-12-03T20:48:30.929Z,8.93
2022-12-03T20:51:00.991Z,7.24
2022-12-03T20:53:31.002Z,6.88
2022-12-03T20:56:01.005Z,5.96
2022-12-03T20:58:31.047Z,4.47
2022-12-03T21:01:01.125Z,8.37
2022-12-03T21:03:31.119Z,9.28
2022-12-03T21:08:41.108Z,7.19
2022-12-03T21:11:01.154Z,5.61
2022-12-03T21:13:32.527Z,6.37
2022-12-03T21:16:01.187Z,5.54
2022-12-03T21:18:31.244Z,7.48
2022-12-03T21:21:01.241Z,9.26
2022-12-03T21:23:31.269Z,9.72
2022-12-03T21:26:01.295Z,9.91
2022-12-03T21:31:01.440Z,11.28
2022-12-03T21:33:31.383Z,10.41
2022-12-03T21:36:01.400Z,6.01
2022-12-03T21:41:01.445Z,5.9
2022-12-03T21:43:31.462Z,7.31
2022-12-03T21:46:01.515Z,6.83
2022-12-03T21:48:31.521Z,7.96
2022-12-03T21:51:01.545Z,7.27
2022-12-03T21:56:01.588Z,7.63
2022-12-03T21:58:31.856Z,7.17
2022-12-03T22:01:01.751Z,7.82
2022-12-03T22:06:01.690Z,6.7
2022-12-03T22:08:31.716Z,5.93
2022-12-03T22:11:01.745Z,5.71
2022-12-03T22:13:31.735Z,6.19
2022-12-03T22:16:01.876Z,4.48
2022-12-03T22:18:31.918Z,6.52
2022-12-03T22:21:01.829Z,9.24
2022-12-03T22:23:31.841Z,7.62
2022-12-03T22:26:01.899Z,7.29
2022-12-03T22:28:31.911Z,9.45
2022-12-03T22:31:01.981Z,8.33
2022-12-03T22:33:31.940Z,9.04
2022-12-03T22:38:32.010Z,8.21
2022-12-03T22:41:01.994Z,7.41
2022-12-03T22:43:32.042Z,6.59
2022-12-03T22:46:02.112Z,6.77
2022-12-03T22:51:02.093Z,8.44
2022-12-03T22:56:02.157Z,12.46
2022-12-03T22:58:32.184Z,9.1
2022-12-03T23:01:03.183Z,8.87
2022-12-03T23:03:32.246Z,7.84
2022-12-03T23:06:02.271Z,9.55
2022-12-03T23:08:32.272Z,10.69
2022-12-03T23:11:02.322Z,10.75
2022-12-03T23:13:32.330Z,9.85
2022-12-03T23:16:02.387Z,9.24
2022-12-03T23:18:32.383Z,7.02
2022-12-03T23:21:02.399Z,7.71
2022-12-03T23:23:32.409Z,7.52
2022-12-03T23:26:02.438Z,11.84
2022-12-03T23:28:32.464Z,8.58
2022-12-03T23:31:02.561Z,7.74
2022-12-03T23:33:37.911Z,7.33
2022-12-03T23:36:02.532Z,5.37
2022-12-03T23:38:32.555Z,5.65
2022-12-03T23:41:02.574Z,4.94
2022-12-03T23:43:32.597Z,5.49
2022-12-03T23:46:02.765Z,5.49
2022-12-03T23:48:32.656Z,6.65
2022-12-03T23:51:02.680Z,7.29
2022-12-03T23:53:32.705Z,6.41
2022-12-03T23:56:02.755Z,9.17
2022-12-03T23:58:32.767Z,10.95
